Time;durP1;ratioP1;P1;durP2;ratioP2;P2;SDS_P1;SDS_P2;PMS_P1;PMS_P2;Temp;Humidity;BMP_temperature;BMP_pressure;BME280_temperature;BME280_humidity;BME280_pressure;Samples;Min_cycle;Max_cycle;Signal;HPM_P1;HPM_P2
2023/03/14 00:02:24;;;;;;;1.00;0.90;;;11.20;97.30;;;;;;5067878;28;20938;-86
2023/03/14 00:04:49;;;;;;;0.90;0.80;;;11.20;97.30;;;;;;5062131;28;20226;-86
2023/03/14 00:07:14;;;;;;;1.00;0.90;;;11.20;97.30;;;;;;5067856;28;20436;-87
2023/03/14 00:09:40;;;;;;;1.00;0.90;;;11.20;97.30;;;;;;5057912;28;20198;-86
2023/03/14 00:12:07;;;;;;;1.00;0.90;;;11.20;97.30;;;;;;5073960;28;20260;-86
2023/03/14 00:14:35;;;;;;;1.00;0.90;;;11.20;97.30;;;;;;5080629;28;20581;-86
2023/03/14 00:17:08;;;;;;;1.03;0.93;;;11.10;97.30;;;;;;5073472;28;20504;-86
2023/03/14 00:19:33;;;;;;;1.10;1.00;;;11.10;97.30;;;;;;5071393;28;20202;-86
2023/03/14 00:22:03;;;;;;;1.00;0.90;;;11.10;97.30;;;;;;5060268;28;20942;-86
2023/03/14 00:24:32;;;;;;;1.10;1.00;;;11.10;97.30;;;;;;5061447;28;20247;-86
2023/03/14 00:27:05;;;;;;;0.83;0.77;;;11.10;97.30;;;;;;5066362;28;20439;-86
2023/03/14 00:29:33;;;;;;;1.00;0.90;;;11.00;97.30;;;;;;5059379;28;20464;-86
2023/03/14 00:31:58;;;;;;;1.17;1.07;;;11.00;97.30;;;;;;5070586;28;20211;-86
2023/03/14 00:34:29;;;;;;;1.20;1.10;;;11.00;97.30;;;;;;5072148;28;20984;-86
2023/03/14 00:36:54;;;;;;;1.00;0.90;;;11.00;97.30;;;;;;5062241;28;20691;-86
2023/03/14 00:39:20;;;;;;;1.20;1.17;;;11.00;97.30;;;;;;5082685;28;20226;-87
2023/03/14 00:41:45;;;;;;;0.97;0.87;;;11.00;97.30;;;;;;5055878;28;20197;-87
2023/03/14 00:44:11;;;;;;;0.97;0.87;;;11.00;97.30;;;;;;5073824;28;20225;-86
2023/03/14 00:46:36;;;;;;;0.90;0.80;;;11.00;97.30;;;;;;5071404;28;20160;-87
2023/03/14 00:49:02;;;;;;;1.07;0.97;;;11.00;97.30;;;;;;5070222;28;20284;-87
2023/03/14 00:51:27;;;;;;;1.20;1.10;;;11.00;97.30;;;;;;5061389;28;20657;-87
2023/03/14 00:53:53;;;;;;;1.00;0.90;;;11.00;97.30;;;;;;5072878;28;20198;-87
2023/03/14 00:56:18;;;;;;;1.43;1.33;;;11.10;97.30;;;;;;5079996;28;20185;-87
2023/03/14 00:58:44;;;;;;;0.97;0.87;;;11.10;97.30;;;;;;5073614;28;20212;-87
2023/03/14 01:01:16;;;;;;;1.00;0.90;;;11.10;97.30;;;;;;5072125;28;20190;-86
2023/03/14 01:03:42;;;;;;;1.00;0.90;;;11.10;97.30;;;;;;5066998;28;20480;-86
2023/03/14 01:06:19;;;;;;;1.30;1.20;;;11.10;97.30;;;;;;5066218;28;20424;-87
2023/03/14 01:08:45;;;;;;;1.10;1.00;;;11.20;97.30;;;;;;5067951;28;20573;-87
2023/03/14 01:11:14;;;;;;;1.30;1.20;;;11.20;97.30;;;;;;5076075;28;20218;-86
2023/03/14 01:13:47;;;;;;;1.10;1.00;;;11.30;97.30;;;;;;5068420;28;20478;-87
2023/03/14 01:16:13;;;;;;;1.00;0.90;;;11.30;97.30;;;;;;5072304;28;20408;-85
2023/03/14 01:18:40;;;;;;;0.90;0.80;;;11.40;97.30;;;;;;5091378;28;20767;-87
2023/03/14 01:21:19;;;;;;;2.60;1.00;;;11.40;97.30;;;;;;5071094;28;20437;-87
2023/03/14 01:23:46;;;;;;;0.90;0.80;;;11.40;97.30;;;;;;5064193;28;20532;-86
2023/03/14 01:26:19;;;;;;;1.03;0.93;;;11.40;97.30;;;;;;5063368;28;20451;-86
2023/03/14 01:28:45;;;;;;;1.00;0.90;;;11.40;97.30;;;;;;5063602;28;20480;-86
2023/03/14 01:31:14;;;;;;;1.00;0.90;;;11.40;97.30;;;;;;5083669;28;20836;-86
2023/03/14 01:33:42;;;;;;;0.90;0.80;;;11.40;97.30;;;;;;5059028;28;20503;-86
2023/03/14 01:36:09;;;;;;;0.90;0.80;;;11.40;97.30;;;;;;5064260;28;20221;-86
2023/03/14 01:38:39;;;;;;;1.57;1.13;;;11.40;97.30;;;;;;5066037;28;20408;-87
2023/03/14 01:41:05;;;;;;;0.90;0.80;;;11.40;97.30;;;;;;5060256;28;20419;-87
2023/03/14 01:43:31;;;;;;;1.00;0.90;;;11.40;97.30;;;;;;5069752;28;20441;-87
2023/03/14 01:46:05;;;;;;;1.00;0.90;;;11.40;97.30;;;;;;5066523;28;20409;-86
2023/03/14 01:48:54;;;;;;;1.00;0.90;;;11.40;97.30;;;;;;5069450;28;20268;-87
2023/03/14 01:51:34;;;;;;;0.80;0.70;;;11.40;97.30;;;;;;5052902;28;20436;-86
2023/03/14 01:54:09;;;;;;;0.90;0.80;;;11.40;97.30;;;;;;5059874;28;20240;-87
2023/03/14 01:56:35;;;;;;;1.00;0.90;;;11.40;97.30;;;;;;5071452;28;20441;-87
2023/03/14 01:59:05;;;;;;;1.00;0.90;;;11.30;97.30;;;;;;5075356;28;20415;-87
2023/03/14 02:01:31;;;;;;;1.00;0.90;;;11.30;97.30;;;;;;5066149;28;20403;-86
2023/03/14 02:04:01;;;;;;;0.90;0.80;;;11.40;97.30;;;;;;5062861;28;20846;-86
2023/03/14 02:06:33;;;;;;;0.77;0.70;;;11.40;97.30;;;;;;5067092;28;20201;-87
2023/03/14 02:09:00;;;;;;;1.00;0.90;;;11.40;97.30;;;;;;5080970;28;20511;-86
2023/03/14 02:11:29;;;;;;;0.90;0.80;;;11.40;97.30;;;;;;5067328;28;20402;-86
2023/03/14 02:13:56;;;;;;;1.10;1.00;;;11.40;97.30;;;;;;5071761;28;20443;-87
2023/03/14 02:16:22;;;;;;;0.90;0.80;;;11.40;97.30;;;;;;5087627;28;20411;-88
2023/03/14 02:18:48;;;;;;;1.00;0.90;;;11.30;97.30;;;;;;5065844;28;20416;-86
2023/03/14 02:21:25;;;;;;;2.17;1.27;;;11.30;97.30;;;;;;5065917;28;20197;-87
2023/03/14 02:24:25;;;;;;;1.00;0.90;;;11.30;97.30;;;;;;5085006;28;20217;-87
2023/03/14 02:27:11;;;;;;;0.90;0.80;;;11.30;97.30;;;;;;5071052;28;20427;-87
2023/03/14 02:29:43;;;;;;;1.20;1.10;;;11.30;97.30;;;;;;5062005;28;20456;-87
2023/03/14 02:32:09;;;;;;;1.00;0.90;;;11.20;97.30;;;;;;5069603;28;20412;-86
2023/03/14 02:34:36;;;;;;;0.73;0.70;;;11.30;97.30;;;;;;5070212;28;20544;-86
2023/03/14 02:37:03;;;;;;;1.03;0.93;;;11.30;97.30;;;;;;5063350;28;20175;-88
2023/03/14 02:39:41;;;;;;;0.80;0.70;;;11.30;97.30;;;;;;5063658;28;20428;-86
2023/03/14 02:42:07;;;;;;;1.00;0.90;;;11.30;97.30;;;;;;5074407;28;20838;-86
2023/03/14 02:44:32;;;;;;;1.10;1.00;;;11.30;97.30;;;;;;5061185;28;20527;-86
2023/03/14 02:46:58;;;;;;;1.00;0.90;;;11.30;97.30;;;;;;5071780;28;20266;-87
2023/03/14 02:49:27;;;;;;;1.43;1.33;;;11.30;97.30;;;;;;5058260;28;20680;-87
2023/03/14 02:51:53;;;;;;;0.77;0.70;;;11.30;97.30;;;;;;5069579;28;20409;-86
2023/03/14 02:54:19;;;;;;;0.90;0.80;;;11.30;97.30;;;;;;5068113;28;20437;-87
2023/03/14 02:56:45;;;;;;;1.10;1.00;;;11.30;97.30;;;;;;5065242;28;20174;-86
2023/03/14 02:59:10;;;;;;;0.90;0.80;;;11.30;97.30;;;;;;5072824;28;20519;-86
2023/03/14 03:01:36;;;;;;;0.90;0.80;;;11.30;97.30;;;;;;5073978;28;20178;-86
2023/03/14 03:04:01;;;;;;;1.00;0.90;;;11.30;97.30;;;;;;5072738;28;20248;-86
2023/03/14 03:06:27;;;;;;;1.00;0.90;;;11.30;97.30;;;;;;5066602;28;20182;-87
2023/03/14 03:08:53;;;;;;;1.40;1.00;;;11.20;97.30;;;;;;5072934;28;20206;-86
2023/03/14 03:11:18;;;;;;;1.00;0.90;;;11.30;97.30;;;;;;5062511;28;20184;-86
2023/03/14 03:13:44;;;;;;;0.90;0.80;;;11.30;97.30;;;;;;5061095;28;20203;-86
2023/03/14 03:16:09;;;;;;;1.10;1.00;;;11.20;97.30;;;;;;5063247;28;20261;-87
2023/03/14 03:18:35;;;;;;;0.97;0.87;;;11.20;97.30;;;;;;5064242;28;20185;-87
2023/03/14 03:21:02;;;;;;;1.53;1.43;;;11.30;97.30;;;;;;5069880;28;20182;-86
2023/03/14 03:23:28;;;;;;;1.10;1.00;;;11.30;97.30;;;;;;5064057;28;20202;-86
2023/03/14 03:25:54;;;;;;;1.00;0.90;;;11.30;97.30;;;;;;5075178;28;20511;-86
2023/03/14 03:28:19;;;;;;;1.27;1.17;;;11.20;97.30;;;;;;5061012;28;20771;-87
2023/03/14 03:30:45;;;;;;;1.10;1.00;;;11.30;97.30;;;;;;5074926;28;20205;-85
2023/03/14 03:33:12;;;;;;;1.10;1.00;;;11.30;97.30;;;;;;5073943;28;20476;-86
2023/03/14 03:35:45;;;;;;;1.00;0.90;;;11.30;97.30;;;;;;5064453;28;20265;-87
2023/03/14 03:38:11;;;;;;;1.93;1.80;;;11.40;97.30;;;;;;5068951;28;20428;-87
2023/03/14 03:40:37;;;;;;;1.10;1.00;;;11.40;97.30;;;;;;5075122;28;20316;-86
2023/03/14 03:43:03;;;;;;;1.00;0.90;;;11.40;97.30;;;;;;5066994;28;20539;-87
2023/03/14 03:45:29;;;;;;;0.90;0.80;;;11.40;97.30;;;;;;5068013;28;20181;-86
2023/03/14 03:47:55;;;;;;;1.00;0.90;;;11.40;97.30;;;;;;5063697;28;20662;-87
2023/03/14 03:50:20;;;;;;;0.97;0.87;;;11.40;97.30;;;;;;5056424;28;20206;-87
2023/03/14 03:52:46;;;;;;;1.50;1.40;;;11.40;97.30;;;;;;5063095;28;20683;-87
2023/03/14 03:55:11;;;;;;;1.00;0.90;;;11.40;97.30;;;;;;5059711;28;20203;-88
2023/03/14 03:57:37;;;;;;;1.00;0.90;;;11.40;97.30;;;;;;5054945;28;20178;-86
2023/03/14 04:00:05;;;;;;;0.90;0.80;;;11.50;97.30;;;;;;5069363;28;20265;-87
2023/03/14 04:02:30;;;;;;;1.00;0.90;;;11.50;97.30;;;;;;5056729;28;20189;-86
2023/03/14 04:04:56;;;;;;;0.90;0.80;;;11.50;97.30;;;;;;5059087;28;20465;-87
2023/03/14 04:07:21;;;;;;;1.13;1.03;;;11.50;97.30;;;;;;5061193;28;20258;-87
2023/03/14 04:09:47;;;;;;;0.87;0.80;;;11.40;97.30;;;;;;5074675;28;20247;-87
2023/03/14 04:12:13;;;;;;;1.00;0.90;;;11.40;97.30;;;;;;5067130;28;20183;-87
2023/03/14 04:14:40;;;;;;;1.00;0.90;;;11.40;97.30;;;;;;5056972;28;20544;-87
2023/03/14 04:17:06;;;;;;;1.10;1.00;;;11.40;97.30;;;;;;5061010;28;20979;-87
2023/03/14 04:19:32;;;;;;;2.50;2.30;;;11.40;97.30;;;;;;5071177;28;20421;-87
2023/03/14 04:21:57;;;;;;;0.90;0.80;;;11.40;97.30;;;;;;5059105;28;20420;-86
2023/03/14 04:24:23;;;;;;;1.10;1.00;;;11.40;97.30;;;;;;5066364;28;20710;-87
2023/03/14 04:26:48;;;;;;;1.00;0.90;;;11.40;97.30;;;;;;5060922;28;20185;-86
2023/03/14 04:29:14;;;;;;;1.53;1.43;;;11.40;97.30;;;;;;5056776;28;20697;-87
2023/03/14 04:31:39;;;;;;;1.33;1.23;;;11.40;97.30;;;;;;5069405;28;20174;-87
2023/03/14 04:34:05;;;;;;;1.20;1.10;;;11.40;97.30;;;;;;5067537;28;20199;-87
2023/03/14 04:36:30;;;;;;;1.13;1.03;;;11.40;97.30;;;;;;5064847;28;20168;-86
2023/03/14 04:38:56;;;;;;;1.07;0.97;;;11.30;97.30;;;;;;5071924;28;20213;-87
2023/03/14 04:41:21;;;;;;;0.80;0.70;;;11.30;97.30;;;;;;5067617;28;20624;-86
2023/03/14 04:43:47;;;;;;;1.00;0.90;;;11.30;97.30;;;;;;5066673;28;20252;-87
2023/03/14 04:46:12;;;;;;;1.00;0.90;;;11.30;97.30;;;;;;5074324;28;20522;-87
2023/03/14 04:48:38;;;;;;;1.00;0.90;;;11.30;97.30;;;;;;5071878;28;20188;-86
2023/03/14 04:51:04;;;;;;;0.90;0.80;;;11.20;97.30;;;;;;5076838;28;20220;-86
2023/03/14 04:53:29;;;;;;;1.00;0.90;;;11.30;97.30;;;;;;5072513;28;20277;-86
2023/03/14 04:55:55;;;;;;;0.90;0.80;;;11.20;97.30;;;;;;5079683;28;20506;-86
2023/03/14 04:58:22;;;;;;;0.90;0.80;;;11.20;97.30;;;;;;5091072;28;20183;-87
2023/03/14 05:00:48;;;;;;;0.97;0.90;;;11.30;97.30;;;;;;5068157;28;20444;-86
2023/03/14 05:03:17;;;;;;;1.00;0.90;;;11.20;97.30;;;;;;5078612;28;20941;-87
2023/03/14 05:05:43;;;;;;;0.90;0.80;;;11.20;97.30;;;;;;5068334;28;20187;-86
2023/03/14 05:08:09;;;;;;;0.77;0.73;;;11.20;97.30;;;;;;5075075;28;20417;-87
2023/03/14 05:10:35;;;;;;;1.13;1.03;;;11.20;97.30;;;;;;5066483;28;20275;-88
2023/03/14 05:13:03;;;;;;;0.90;0.80;;;11.20;97.30;;;;;;5066857;28;20178;-87
2023/03/14 05:15:28;;;;;;;6.00;1.30;;;11.20;97.30;;;;;;5064136;28;20173;-87
2023/03/14 05:17:54;;;;;;;1.03;0.93;;;11.20;97.30;;;;;;5064443;28;20498;-88
2023/03/14 05:20:20;;;;;;;0.90;0.80;;;11.20;97.30;;;;;;5060880;28;20541;-87
2023/03/14 05:22:46;;;;;;;0.90;0.80;;;11.20;97.30;;;;;;5066442;28;20182;-88
2023/03/14 05:25:12;;;;;;;0.90;0.80;;;11.20;97.30;;;;;;5077496;28;20440;-87
2023/03/14 05:27:37;;;;;;;0.90;0.80;;;11.20;97.30;;;;;;5066142;28;20526;-87
2023/03/14 05:30:05;;;;;;;1.30;1.20;;;11.10;97.30;;;;;;5067879;28;20198;-87
2023/03/14 05:32:31;;;;;;;3.07;2.40;;;11.10;97.30;;;;;;5072869;28;20314;-87
2023/03/14 05:34:58;;;;;;;0.90;0.90;;;11.00;97.30;;;;;;5067393;28;20513;-87
2023/03/14 05:37:25;;;;;;;1.00;0.90;;;11.00;97.30;;;;;;5089425;28;20178;-87
2023/03/14 05:39:50;;;;;;;0.90;0.80;;;11.00;97.30;;;;;;5075136;28;20416;-87
2023/03/14 05:42:16;;;;;;;0.90;0.80;;;10.90;97.30;;;;;;5066896;28;20450;-87
2023/03/14 05:44:44;;;;;;;0.90;0.80;;;10.90;97.30;;;;;;5064985;28;20288;-86
2023/03/14 05:47:09;;;;;;;1.10;1.00;;;10.90;97.30;;;;;;5084791;28;20342;-88
2023/03/14 05:49:35;;;;;;;1.00;0.90;;;10.90;97.30;;;;;;5080110;28;20483;-89
2023/03/14 05:52:00;;;;;;;1.03;0.93;;;10.90;97.30;;;;;;5067854;28;20182;-88
2023/03/14 05:54:26;;;;;;;1.57;1.50;;;10.80;97.30;;;;;;5058661;28;20194;-87
2023/03/14 05:56:52;;;;;;;1.10;1.00;;;10.80;97.30;;;;;;5057663;28;20178;-87
2023/03/14 05:59:17;;;;;;;1.43;1.23;;;10.80;97.30;;;;;;5078116;28;20189;-88
2023/03/14 06:01:43;;;;;;;1.00;0.90;;;10.80;97.30;;;;;;5070637;28;20800;-87
2023/03/14 06:04:11;;;;;;;1.80;1.23;;;10.90;97.30;;;;;;5057058;28;20643;-86
2023/03/14 06:06:36;;;;;;;1.00;0.90;;;10.90;97.30;;;;;;5071057;28;20269;-87
2023/03/14 06:09:02;;;;;;;9.50;1.10;;;10.90;97.30;;;;;;5063834;28;20512;-87
2023/03/14 06:11:28;;;;;;;0.70;0.70;;;11.00;97.30;;;;;;5070331;28;20166;-86
2023/03/14 06:13:53;;;;;;;0.70;0.70;;;11.00;97.30;;;;;;5052846;28;20198;-87
2023/03/14 06:16:19;;;;;;;1.10;1.00;;;11.10;97.30;;;;;;5055712;28;20178;-87
2023/03/14 06:18:46;;;;;;;1.00;0.90;;;11.10;97.30;;;;;;5060264;28;20193;-87
2023/03/14 06:21:12;;;;;;;1.00;0.90;;;11.10;97.30;;;;;;5056772;28;20214;-87
2023/03/14 06:23:38;;;;;;;1.10;1.00;;;11.20;97.30;;;;;;5058812;28;21009;-87
2023/03/14 06:26:04;;;;;;;0.90;0.80;;;11.20;97.30;;;;;;5067491;28;20515;-87
2023/03/14 06:28:30;;;;;;;1.00;0.90;;;11.20;97.30;;;;;;5057302;28;20460;-86
2023/03/14 06:30:55;;;;;;;2.40;1.97;;;11.20;97.30;;;;;;5069156;28;20297;-87
2023/03/14 06:33:21;;;;;;;3.03;1.30;;;11.20;97.30;;;;;;5067570;28;21037;-87
2023/03/14 06:35:46;;;;;;;1.10;0.90;;;11.20;97.30;;;;;;5067359;28;20184;-87
2023/03/14 06:38:12;;;;;;;1.10;1.00;;;11.20;97.30;;;;;;5075728;28;20272;-87
2023/03/14 06:40:37;;;;;;;1.00;0.90;;;11.20;97.30;;;;;;5089207;28;20182;-87
2023/03/14 06:43:03;;;;;;;1.20;1.10;;;11.20;97.30;;;;;;5077022;28;20183;-87
2023/03/14 06:45:28;;;;;;;1.57;1.53;;;11.30;97.30;;;;;;5074262;28;20177;-87
2023/03/14 06:47:57;;;;;;;0.90;0.80;;;11.30;97.30;;;;;;5061859;28;20181;-86
2023/03/14 06:50:28;;;;;;;1.20;1.10;;;11.30;97.30;;;;;;5077477;28;20201;-87
2023/03/14 06:52:57;;;;;;;1.43;1.33;;;11.30;97.30;;;;;;5084047;28;20421;-87
2023/03/14 06:55:26;;;;;;;1.10;1.00;;;11.30;97.30;;;;;;5073989;28;20420;-87
2023/03/14 06:57:57;;;;;;;1.23;1.13;;;11.40;97.30;;;;;;5064129;28;20415;-87
2023/03/14 07:00:26;;;;;;;0.97;0.87;;;11.40;97.30;;;;;;5064772;28;20458;-87
2023/03/14 07:03:14;;;;;;;1.23;1.13;;;11.40;97.30;;;;;;5067326;28;20435;-87
2023/03/14 07:05:47;;;;;;;1.30;1.10;;;11.50;97.30;;;;;;5046754;28;20466;-86
2023/03/14 07:08:16;;;;;;;0.90;0.80;;;11.50;97.30;;;;;;5052668;28;20441;-88
2023/03/14 07:10:44;;;;;;;0.90;0.80;;;11.40;97.30;;;;;;5051888;28;20452;-88
2023/03/14 07:13:10;;;;;;;4.40;1.30;;;11.40;97.30;;;;;;5044643;28;20417;-87
2023/03/14 07:15:36;;;;;;;1.00;0.90;;;11.40;97.30;;;;;;5052186;28;20957;-87
2023/03/14 07:18:01;;;;;;;1.23;1.17;;;11.40;97.30;;;;;;5040513;28;20186;-86
2023/03/14 07:20:27;;;;;;;0.90;0.80;;;11.40;97.30;;;;;;5055185;28;20182;-87
2023/03/14 07:22:53;;;;;;;1.57;1.30;;;11.40;97.30;;;;;;5065011;28;20672;-87
2023/03/14 07:25:18;;;;;;;1.60;1.50;;;11.50;97.30;;;;;;5054431;28;20183;-88
2023/03/14 07:27:45;;;;;;;1.47;1.37;;;11.50;97.30;;;;;;5054105;28;20660;-87
2023/03/14 07:30:12;;;;;;;0.90;0.80;;;11.50;97.30;;;;;;5053868;28;20208;-87
2023/03/14 07:32:37;;;;;;;1.10;1.00;;;11.50;97.30;;;;;;5048883;28;20417;-87
2023/03/14 07:35:03;;;;;;;1.10;1.00;;;11.60;97.30;;;;;;5044474;28;20532;-87
2023/03/14 07:37:29;;;;;;;1.00;0.90;;;11.60;97.30;;;;;;5044629;28;20176;-86
2023/03/14 07:39:54;;;;;;;0.90;0.80;;;11.70;97.30;;;;;;5045385;28;20428;-87
2023/03/14 07:42:20;;;;;;;1.03;0.93;;;11.70;97.30;;;;;;5053268;28;20179;-87
2023/03/14 07:44:45;;;;;;;3.70;2.23;;;11.80;97.30;;;;;;5036462;28;20200;-87
2023/03/14 07:47:10;;;;;;;2.53;1.77;;;11.90;97.30;;;;;;5053789;28;20183;-87
2023/03/14 07:49:36;;;;;;;1.10;1.00;;;11.90;97.30;;;;;;5037512;28;20208;-87
2023/03/14 07:52:01;;;;;;;1.33;1.30;;;11.90;97.30;;;;;;5038372;28;20187;-87
2023/03/14 07:54:27;;;;;;;1.43;1.10;;;12.00;97.30;;;;;;5037035;28;20573;-87
2023/03/14 07:56:52;;;;;;;0.97;0.90;;;12.00;97.30;;;;;;5065756;28;20176;-87
2023/03/14 07:59:18;;;;;;;1.07;0.97;;;12.10;97.30;;;;;;5046906;28;20184;-87
2023/03/14 08:01:44;;;;;;;1.20;1.10;;;12.10;97.30;;;;;;5059848;28;20346;-87
2023/03/14 08:04:12;;;;;;;1.00;0.90;;;12.20;97.30;;;;;;5061527;28;20559;-88
2023/03/14 08:06:38;;;;;;;1.07;0.97;;;12.20;97.30;;;;;;5069742;28;20182;-88
2023/03/14 08:09:04;;;;;;;1.17;1.07;;;12.30;97.30;;;;;;5080241;28;20548;-87
2023/03/14 08:11:29;;;;;;;0.90;0.80;;;12.30;97.30;;;;;;5085673;28;20303;-88
2023/03/14 08:13:55;;;;;;;0.90;0.80;;;12.30;97.30;;;;;;5076423;28;20201;-88
2023/03/14 08:16:21;;;;;;;1.00;0.90;;;12.30;97.30;;;;;;5087796;28;20157;-88
2023/03/14 08:18:46;;;;;;;1.07;1.00;;;12.30;97.30;;;;;;5061442;28;20443;-88
2023/03/14 08:21:12;;;;;;;0.90;0.80;;;12.30;97.30;;;;;;5058361;28;20189;-88
2023/03/14 08:23:38;;;;;;;1.00;0.90;;;12.40;97.30;;;;;;5056262;28;20733;-87
2023/03/14 08:26:03;;;;;;;0.90;0.80;;;12.50;97.30;;;;;;5059477;28;20430;-88
2023/03/14 08:28:30;;;;;;;1.10;1.00;;;12.60;97.30;;;;;;5070263;28;20265;-87
2023/03/14 08:30:56;;;;;;;1.10;1.00;;;12.60;97.30;;;;;;5067338;28;20708;-87
2023/03/14 08:33:23;;;;;;;1.10;1.00;;;12.60;97.30;;;;;;5061925;28;20438;-88
2023/03/14 08:35:51;;;;;;;0.80;0.70;;;12.60;97.30;;;;;;5067235;28;20414;-88
2023/03/14 08:38:16;;;;;;;0.97;0.87;;;12.60;97.30;;;;;;5062905;28;20767;-87
2023/03/14 08:40:47;;;;;;;1.27;1.20;;;12.70;97.30;;;;;;5080215;28;20427;-86
2023/03/14 08:43:35;;;;;;;8.23;2.73;;;12.80;97.30;;;;;;5062823;28;20186;-87
2023/03/14 08:46:07;;;;;;;1.00;0.90;;;12.80;97.10;;;;;;5057451;28;20417;-88
2023/03/14 08:48:36;;;;;;;1.00;0.90;;;12.80;96.80;;;;;;5064655;28;20417;-87
2023/03/14 08:51:12;;;;;;;1.10;1.00;;;12.80;96.60;;;;;;5057220;28;20418;-87
2023/03/14 08:53:38;;;;;;;1.00;0.90;;;12.90;96.70;;;;;;5058974;28;20468;-88
2023/03/14 08:56:09;;;;;;;1.20;1.10;;;12.90;96.40;;;;;;5064634;28;20417;-88
2023/03/14 08:58:38;;;;;;;1.33;1.23;;;13.00;96.30;;;;;;5073686;28;20501;-88
2023/03/14 09:01:05;;;;;;;1.00;0.90;;;13.20;96.90;;;;;;5073126;28;20463;-87
2023/03/14 09:03:30;;;;;;;1.10;1.00;;;13.30;95.80;;;;;;5069073;28;20583;-87
2023/03/14 09:06:00;;;;;;;1.00;0.90;;;13.40;95.50;;;;;;5060108;28;20859;-87
2023/03/14 09:08:26;;;;;;;1.00;0.90;;;13.50;95.10;;;;;;5056948;28;20176;-88
2023/03/14 09:10:51;;;;;;;1.10;1.00;;;13.60;95.00;;;;;;5069261;28;20471;-89
2023/03/14 09:13:17;;;;;;;1.10;1.00;;;13.60;95.00;;;;;;5071453;28;20198;-88
2023/03/14 09:15:42;;;;;;;0.90;0.80;;;13.60;95.20;;;;;;5075049;28;20179;-87
2023/03/14 09:18:08;;;;;;;1.33;1.13;;;13.70;95.00;;;;;;5073145;28;20184;-88
2023/03/14 09:20:33;;;;;;;0.93;0.83;;;13.80;94.60;;;;;;5066070;28;20183;-87
2023/03/14 09:22:59;;;;;;;0.90;0.80;;;13.80;94.50;;;;;;5060745;28;20202;-88
2023/03/14 09:25:24;;;;;;;4.30;1.00;;;14.00;94.70;;;;;;5069673;28;20188;-86
2023/03/14 09:27:50;;;;;;;0.93;0.83;;;14.20;94.40;;;;;;5074072;28;20269;-88
2023/03/14 09:30:15;;;;;;;0.70;0.70;;;14.20;93.50;;;;;;5068068;28;20202;-88
2023/03/14 09:32:41;;;;;;;1.00;0.90;;;14.20;93.80;;;;;;5073616;28;20202;-87
2023/03/14 09:35:07;;;;;;;1.13;1.03;;;14.20;93.30;;;;;;5061785;28;20194;-87
2023/03/14 09:37:32;;;;;;;0.83;0.77;;;14.20;93.50;;;;;;5068010;28;20701;-87
2023/03/14 09:39:57;;;;;;;1.00;0.90;;;14.10;93.90;;;;;;5065098;28;20179;-87
2023/03/14 09:42:27;;;;;;;1.03;0.93;;;14.10;93.90;;;;;;5072095;28;20216;-89
2023/03/14 09:45:06;;;;;;;0.90;0.80;;;14.00;93.60;;;;;;5078136;28;20206;-88
2023/03/14 09:47:33;;;;;;;1.00;0.90;;;13.80;93.60;;;;;;5069982;28;20424;-88
2023/03/14 09:50:01;;;;;;;0.90;0.80;;;13.70;94.30;;;;;;5068244;28;20472;-87
2023/03/14 09:52:39;;;;;;;0.90;0.80;;;13.70;94.60;;;;;;5075796;28;20421;-89
2023/03/14 09:55:11;;;;;;;1.10;1.00;;;13.70;94.50;;;;;;5071746;28;20546;-89
2023/03/14 09:57:37;;;;;;;0.90;0.80;;;13.60;94.50;;;;;;5073450;28;20406;-88
2023/03/14 10:00:14;;;;;;;1.00;0.90;;;13.60;94.70;;;;;;5077161;28;20444;-88
2023/03/14 10:05:36;;;;;;;0.90;0.80;;;13.60;94.70;;;;;;5084553;28;20452;-88
2023/03/14 10:08:57;;;;;;;0.90;0.80;;;13.70;94.60;;;;;;5082485;28;20541;-84
2023/03/14 10:11:26;;;;;;;1.03;0.93;;;13.70;94.60;;;;;;5012343;28;20639;-86
2023/03/14 10:14:08;;;;;;;1.03;0.93;;;13.80;94.40;;;;;;5078746;28;20420;-89
2023/03/14 10:17:07;;;;;;;1.13;1.03;;;13.80;94.40;;;;;;5080758;28;20410;-87
2023/03/14 10:19:36;;;;;;;1.37;1.33;;;13.70;94.50;;;;;;5071211;28;20405;-88
2023/03/14 10:22:17;;;;;;;0.93;0.83;;;13.70;94.70;;;;;;5087169;28;20412;-87
2023/03/14 10:24:53;;;;;;;1.07;0.97;;;13.60;94.40;;;;;;5072730;28;20496;-88
2023/03/14 10:27:28;;;;;;;1.00;0.90;;;13.60;94.30;;;;;;5080193;28;20426;-88
2023/03/14 10:29:59;;;;;;;4.10;1.50;;;13.50;94.80;;;;;;5083605;28;20477;-88
2023/03/14 10:32:45;;;;;;;0.90;0.80;;;13.50;94.20;;;;;;5081525;28;20394;-88
2023/03/14 10:35:47;;;;;;;1.00;0.90;;;13.50;94.10;;;;;;5100860;28;20465;-88
2023/03/14 10:38:17;;;;;;;7.83;2.20;;;13.40;94.30;;;;;;5096167;28;20428;-89
2023/03/14 10:40:58;;;;;;;1.00;0.90;;;13.40;94.80;;;;;;5081950;28;20412;-87
2023/03/14 10:43:52;;;;;;;0.70;0.70;;;13.50;94.90;;;;;;5075144;28;20500;-88
2023/03/14 10:46:19;;;;;;;1.00;0.90;;;13.50;94.50;;;;;;5093296;28;20523;-86
2023/03/14 10:48:49;;;;;;;1.30;1.20;;;13.50;94.10;;;;;;5077922;28;20412;-88
2023/03/14 10:51:27;;;;;;;3.40;1.00;;;13.60;94.10;;;;;;5060316;28;20406;-86
2023/03/14 10:54:23;;;;;;;0.83;0.77;;;13.60;93.60;;;;;;5059322;28;20448;-88
2023/03/14 10:57:00;;;;;;;0.90;0.80;;;13.60;93.80;;;;;;5062633;28;20422;-88
2023/03/14 10:59:35;;;;;;;0.90;0.80;;;13.60;93.90;;;;;;5058945;28;20425;-88
2023/03/14 11:02:45;;;;;;;0.90;0.80;;;13.50;94.00;;;;;;5067512;28;20417;-87
2023/03/14 11:05:17;;;;;;;1.30;1.20;;;13.50;94.50;;;;;;5034212;28;20547;-87
2023/03/14 11:07:44;;;;;;;1.10;1.00;;;13.50;94.40;;;;;;5063210;28;22026;-88
2023/03/14 11:10:28;;;;;;;0.90;0.80;;;13.40;94.60;;;;;;5068520;28;20448;-88
2023/03/14 11:13:25;;;;;;;0.90;0.80;;;13.40;94.80;;;;;;5071141;28;20428;-88
2023/03/14 11:16:17;;;;;;;0.93;0.83;;;13.40;95.00;;;;;;5065346;28;20432;-88
2023/03/14 11:19:11;;;;;;;0.90;0.80;;;13.40;95.00;;;;;;5068603;28;20521;-88
2023/03/14 11:21:37;;;;;;;1.10;1.00;;;13.50;95.30;;;;;;5074754;28;20511;-87
2023/03/14 11:24:27;;;;;;;1.00;0.90;;;13.50;94.70;;;;;;5065713;28;20450;-88
2023/03/14 11:27:17;;;;;;;1.10;1.00;;;13.40;94.70;;;;;;5062467;28;20948;-90
2023/03/14 11:29:51;;;;;;;0.80;0.70;;;13.50;94.80;;;;;;5060074;28;20461;-88
2023/03/14 11:32:40;;;;;;;0.90;0.80;;;13.60;94.70;;;;;;5072953;28;20674;-89
2023/03/14 11:36:03;;;;;;;0.90;0.80;;;13.70;94.50;;;;;;5063246;28;20449;-88
2023/03/14 11:38:46;;;;;;;1.00;0.90;;;13.80;94.80;;;;;;5011745;28;20447;-88
2023/03/14 11:41:22;;;;;;;0.90;0.80;;;13.80;94.20;;;;;;5003828;28;20455;-88
2023/03/14 11:43:52;;;;;;;0.90;0.80;;;13.70;94.60;;;;;;5060087;28;20870;-88
2023/03/14 11:46:24;;;;;;;1.00;0.90;;;13.60;95.10;;;;;;5071424;28;20413;-86
2023/03/14 11:49:03;;;;;;;1.00;0.90;;;13.50;95.10;;;;;;5077953;28;20472;-88
2023/03/14 11:51:38;;;;;;;0.90;0.80;;;13.50;95.70;;;;;;5061899;28;20413;-88
2023/03/14 11:54:28;;;;;;;1.30;1.13;;;13.60;96.10;;;;;;5061137;28;20431;-88
2023/03/14 11:57:17;;;;;;;0.90;0.80;;;13.70;96.00;;;;;;5075109;28;20474;-88
2023/03/14 12:00:44;;;;;;;0.90;0.80;;;13.80;96.20;;;;;;5065581;28;20451;-88
2023/03/14 12:03:54;;;;;;;0.90;0.80;;;13.70;96.20;;;;;;5018961;28;20427;-89
2023/03/14 12:06:48;;;;;;;0.90;0.80;;;13.70;96.20;;;;;;5041109;28;20421;-87
2023/03/14 12:09:26;;;;;;;0.83;0.73;;;13.70;95.70;;;;;;5063146;28;20477;-88
2023/03/14 12:12:17;;;;;;;0.90;0.80;;;13.70;95.70;;;;;;5068390;28;21074;-87
2023/03/14 12:14:57;;;;;;;0.80;0.70;;;13.70;95.80;;;;;;5072779;28;20951;-89
2023/03/14 12:17:36;;;;;;;0.90;0.80;;;13.70;96.10;;;;;;5069852;28;20506;-88
2023/03/14 12:20:24;;;;;;;0.90;0.80;;;13.70;96.00;;;;;;5058584;28;20499;-88
2023/03/14 12:22:56;;;;;;;1.10;1.00;;;13.60;95.70;;;;;;5090966;28;20507;-87
2023/03/14 12:25:28;;;;;;;0.90;0.80;;;13.50;96.30;;;;;;5081322;28;20420;-88
2023/03/14 12:27:56;;;;;;;2.10;1.10;;;13.60;96.90;;;;;;5057798;28;20421;-87
2023/03/14 12:30:36;;;;;;;0.90;0.80;;;13.60;97.00;;;;;;5070588;28;20471;-88
2023/03/14 12:33:17;;;;;;;0.80;0.70;;;13.60;96.40;;;;;;5057170;28;20422;-89
2023/03/14 12:35:52;;;;;;;0.90;0.80;;;13.70;96.40;;;;;;5071257;28;20500;-88
2023/03/14 12:38:37;;;;;;;1.30;1.20;;;13.60;97.00;;;;;;5085821;28;20413;-88
2023/03/14 12:41:14;;;;;;;0.90;0.80;;;13.40;97.30;;;;;;5074826;28;20432;-88
2023/03/14 12:43:40;;;;;;;0.90;0.80;;;13.30;97.30;;;;;;5066309;28;20443;-87
2023/03/14 12:46:21;;;;;;;1.30;1.20;;;13.40;97.30;;;;;;5072098;28;20421;-88
2023/03/14 12:48:55;;;;;;;0.90;0.80;;;13.50;97.30;;;;;;5056026;28;20179;-88
2023/03/14 12:51:34;;;;;;;1.27;1.17;;;13.70;97.30;;;;;;5059193;28;20770;-88
2023/03/14 12:54:32;;;;;;;0.83;0.73;;;13.90;97.30;;;;;;5066189;28;21018;-88
2023/03/14 12:57:14;;;;;;;0.90;0.80;;;14.10;97.30;;;;;;5061634;28;20419;-88
2023/03/14 12:59:57;;;;;;;1.10;1.00;;;14.10;97.30;;;;;;5060692;28;20420;-88
2023/03/14 13:02:27;;;;;;;0.90;0.80;;;14.00;97.20;;;;;;5061930;28;20421;-86
2023/03/14 13:05:02;;;;;;;0.90;0.80;;;13.90;96.90;;;;;;5060936;28;20464;-88
2023/03/14 13:07:35;;;;;;;6.43;1.20;;;13.90;96.80;;;;;;5066320;28;20422;-88
2023/03/14 13:10:07;;;;;;;1.00;0.90;;;13.90;96.80;;;;;;5061133;28;20465;-88